»·PEaware :: N520MJ KPSP-KVNY

N520MJ :: KPSP-KVNY

FLIGHT INFORMATION

Flight Status: Arrived
Operator: Privately registered:
United States
More flights under this callsign
Pilot: Manuel P. (9695)
Aircraft: BOMBARDIER BD-100 CHALLENGER 300
(CL30)
More flights by this aircraft type
Origin: KPSP Palm Springs Intl
United States
Destination: KVNY Van Nuys
United States
More flights between these airports :: More routes between these airports
Route: +CATH1 PSP V388 PDZ V197 POM V264 ITSME V186 VNY
File this flight plan on PilotEdge
Remarks: PSPN2 TEC ROUTE
Altitude:
(Current/Filed)
12,000ft
Speed:
(Current/Filed)
400kts
Departed: 20-Jul-17 06:11 PM
Arrived: 20-Jul-17 06:41 PM
Distance/Time
Traveled:
101nm/0:30
Distance/Time
To Go:
Arrived

Flight Plot

Page will automatically refresh every two minutes.


Map Options




Map Legend


Flown Route
Filed Route
Departure Airport
Arrival Airport
Navaid (VOR, NDB)
Fix

Horizontal Profiles

Position Reports

Time Latitude Longitude Heading Altitude Ground
Speed
20-Jul-17 17:43 33.826007 -116.509990 180 484ft 0kts
20-Jul-17 17:44 33.826007 -116.509990 180 484ft 0kts
20-Jul-17 17:45 33.826007 -116.509990 180 484ft 0kts
20-Jul-17 17:46 33.826007 -116.509990 180 484ft 0kts
20-Jul-17 17:47 33.826007 -116.509990 180 484ft 0kts
20-Jul-17 17:48 33.826007 -116.509990 180 484ft 0kts
20-Jul-17 17:49 33.826007 -116.509990 180 484ft 0kts
20-Jul-17 17:50 33.826007 -116.509990 180 484ft 0kts
20-Jul-17 17:51 33.826007 -116.509990 180 484ft 0kts
20-Jul-17 17:52 33.826007 -116.509990 180 484ft 0kts
20-Jul-17 17:53 33.826007 -116.509990 180 484ft 0kts
20-Jul-17 17:54 33.826007 -116.509990 180 484ft 0kts
20-Jul-17 17:55 33.826007 -116.509990 180 484ft 0kts
20-Jul-17 17:56 33.826007 -116.509990 180 484ft 0kts
20-Jul-17 17:57 33.826007 -116.509990 180 484ft 0kts
20-Jul-17 17:58 33.826007 -116.509990 180 484ft 0kts
20-Jul-17 17:59 33.826007 -116.509990 180 484ft 0kts
20-Jul-17 18:00 33.826007 -116.509990 180 484ft 0kts
20-Jul-17 18:01 33.826007 -116.509990 180 484ft 0kts
20-Jul-17 18:02 33.826007 -116.509990 180 484ft 0kts
20-Jul-17 18:03 33.826007 -116.509990 180 484ft 0kts
20-Jul-17 18:04 33.826007 -116.509990 180 484ft 0kts
20-Jul-17 18:05 33.826007 -116.509989 180 484ft 0kts
20-Jul-17 18:06 33.826006 -116.509989 180 484ft 0kts
20-Jul-17 18:07 33.826006 -116.509989 180 484ft 0kts
20-Jul-17 18:08 33.825664 -116.509463 74 483ft 9kts
20-Jul-17 18:09 33.826055 -116.506857 72 483ft 11kts
20-Jul-17 18:10 33.823259 -116.503981 143 483ft 17kts
20-Jul-17 18:11 33.818701 -116.499928 140 483ft 10kts
20-Jul-17 18:12 33.818530 -116.499118 89 484ft 0kts
20-Jul-17 18:13 33.818532 -116.498989 87 484ft 5kts
20-Jul-17 18:14 33.830347 -116.508061 321 877ft 151kts
20-Jul-17 18:15 33.864353 -116.537222 322 3840ft 156kts
20-Jul-17 18:16 33.913289 -116.573867 0 6406ft 230kts
20-Jul-17 18:17 33.921303 -116.516424 139 9689ft 244kts
20-Jul-17 18:18 33.936971 -116.454546 3 12018ft 288kts
20-Jul-17 18:19 33.985579 -116.534337 263 12009ft 375kts
20-Jul-17 18:20 33.966696 -116.654922 258 11980ft 345kts
20-Jul-17 18:21 33.948915 -116.768555 266 12000ft 365kts
20-Jul-17 18:22 33.943800 -116.892622 267 12124ft 373kts
20-Jul-17 18:23 33.939331 -117.013726 267 12297ft 352kts
20-Jul-17 18:24 33.935013 -117.131741 267 12046ft 356kts
20-Jul-17 18:25 33.930050 -117.251017 267 11966ft 357kts
20-Jul-17 18:26 33.924887 -117.370506 267 11966ft 357kts
20-Jul-17 18:27 33.920848 -117.469459 267 11993ft 356kts
20-Jul-17 18:28 33.952992 -117.577447 303 11995ft 357kts
20-Jul-17 18:29 34.009842 -117.674482 304 11994ft 357kts
20-Jul-17 18:30 34.063889 -117.762957 305 10535ft 298kts
20-Jul-17 18:31 34.074625 -117.853649 270 7952ft 277kts
20-Jul-17 18:32 34.074934 -117.945031 269 6024ft 254kts
20-Jul-17 18:33 34.081923 -118.023331 288 6015ft 235kts
20-Jul-17 18:34 34.104906 -118.100574 289 6017ft 269kts
20-Jul-17 18:35 34.134461 -118.198370 289 5999ft 257kts
20-Jul-17 18:36 34.154280 -118.264508 289 6000ft 247kts
20-Jul-17 18:37 34.172903 -118.343383 282 5180ft 243kts
20-Jul-17 18:38 34.188113 -118.422323 283 4141ft 227kts
20-Jul-17 18:39 34.206109 -118.490627 282 3853ft 195kts
20-Jul-17 18:40 34.244387 -118.524778 348 3298ft 176kts
20-Jul-17 18:41 34.287421 -118.518006 50 3417ft 154kts
20-Jul-17 18:42 34.259271 -118.494982 173 1854ft 157kts
20-Jul-17 18:43 34.218998 -118.491308 172 875ft 135kts
20-Jul-17 18:44 34.197619 -118.489261 166 808ft 13kts
20-Jul-17 18:45 34.198354 -118.488408 22 808ft 8kts

Navigation Log

Ident Type
Flight plan parsing failed, navigation log unavailable